createdAt,value
2023-01-29T00:02:11.349Z,9.35
2023-01-29T00:04:38.656Z,10.10
2023-01-29T00:07:05.938Z,9.43
2023-01-29T00:09:33.284Z,9.30
2023-01-29T00:12:00.652Z,10.07
2023-01-29T00:14:28.085Z,8.80
2023-01-29T00:16:55.743Z,9.98
2023-01-29T00:19:23.261Z,9.00
2023-01-29T00:21:50.464Z,9.52
2023-01-29T00:24:17.814Z,9.65
2023-01-29T00:26:45.089Z,10.30
2023-01-29T00:29:12.456Z,10.90
2023-01-29T00:31:39.803Z,9.80
2023-01-29T00:34:07.247Z,10.70
2023-01-29T00:36:34.513Z,10.38
2023-01-29T00:39:10.516Z,10.52
2023-01-29T00:41:56.667Z,10.55
2023-01-29T00:44:42.470Z,11.02
2023-01-29T00:47:28.148Z,10.93
2023-01-29T00:49:55.517Z,11.02
2023-01-29T00:52:26.291Z,11.15
2023-01-29T00:54:54.859Z,11.48
2023-01-29T00:57:22.567Z,11.25
2023-01-29T00:59:49.794Z,12.27
2023-01-29T01:02:35.513Z,11.80
2023-01-29T01:05:03.181Z,11.60
2023-01-29T01:07:31.130Z,12.40
2023-01-29T01:10:17.949Z,11.32
2023-01-29T01:12:45.351Z,11.55
2023-01-29T01:15:12.796Z,11.27
2023-01-29T01:17:40.107Z,12.20
2023-01-29T01:20:07.941Z,11.98
2023-01-29T01:22:35.940Z,12.05
2023-01-29T01:25:03.414Z,12.05
2023-01-29T01:27:30.830Z,12.43
2023-01-29T01:29:58.113Z,12.10
2023-01-29T01:32:26.108Z,13.10
2023-01-29T01:34:53.925Z,12.07
2023-01-29T01:37:21.216Z,12.13
2023-01-29T01:39:49.071Z,12.77
2023-01-29T01:42:16.412Z,12.50
2023-01-29T01:44:55.971Z,12.80
2023-01-29T01:47:29.418Z,12.32
2023-01-29T01:49:59.989Z,14.05
2023-01-29T01:52:27.206Z,12.52
2023-01-29T01:54:55.682Z,12.73
2023-01-29T01:57:25.190Z,13.93
2023-01-29T01:59:58.261Z,12.40
2023-01-29T02:02:44.630Z,12.85
2023-01-29T02:05:32.119Z,12.55
2023-01-29T02:08:18.372Z,12.68
2023-01-29T02:10:47.637Z,12.82
2023-01-29T02:13:17.836Z,13.10
2023-01-29T02:15:49.090Z,12.57
2023-01-29T02:18:18.177Z,13.32
2023-01-29T02:20:57.169Z,12.73
2023-01-29T02:23:56.382Z,12.82
2023-01-29T02:26:46.327Z,12.63
2023-01-29T02:29:30.598Z,12.63
2023-01-29T02:32:08.503Z,14.43
2023-01-29T02:35:05.727Z,13.27
2023-01-29T02:37:54.784Z,13.60
2023-01-29T02:40:37.215Z,13.38
2023-01-29T02:43:07.569Z,12.75
2023-01-29T02:45:57.076Z,13.55
2023-01-29T02:48:26.283Z,13.50
2023-01-29T02:51:00.981Z,13.65
2023-01-29T02:53:36.269Z,13.07
2023-01-29T02:56:20.657Z,12.85
2023-01-29T02:59:00.354Z,13.68
2023-01-29T03:01:48.405Z,13.18
2023-01-29T03:04:21.799Z,12.85
2023-01-29T03:06:54.429Z,13.02
2023-01-29T03:09:39.705Z,14.63
2023-01-29T03:12:28.454Z,12.55
2023-01-29T03:15:12.042Z,12.82
2023-01-29T03:17:53.869Z,12.95
2023-01-29T03:20:26.483Z,13.38
2023-01-29T03:22:58.576Z,13.68
2023-01-29T03:25:46.677Z,13.35
2023-01-29T03:28:34.954Z,14.45
2023-01-29T03:31:25.956Z,14.65
2023-01-29T03:34:00.440Z,13.85
2023-01-29T03:36:55.979Z,14.00
2023-01-29T03:39:24.859Z,13.07
2023-01-29T03:42:10.606Z,14.75
2023-01-29T03:45:08.557Z,13.80
2023-01-29T03:47:45.919Z,13.77
2023-01-29T03:50:44.831Z,13.77
2023-01-29T03:53:51.623Z,13.20
2023-01-29T03:56:21.153Z,13.90
2023-01-29T03:58:59.146Z,14.57
2023-01-29T04:01:42.346Z,13.95
2023-01-29T04:04:17.722Z,14.20
2023-01-29T04:06:47.299Z,14.73
2023-01-29T04:09:23.337Z,14.70
2023-01-29T04:11:55.318Z,14.27
2023-01-29T04:14:23.115Z,13.90
2023-01-29T04:16:53.573Z,13.93
2023-01-29T04:19:21.056Z,14.55
2023-01-29T04:21:50.253Z,15.75
2023-01-29T04:24:17.884Z,13.60
2023-01-29T04:26:55.653Z,15.10
2023-01-29T04:29:42.120Z,15.00
2023-01-29T04:32:19.083Z,14.30
2023-01-29T04:35:10.786Z,14.52
2023-01-29T04:37:47.914Z,14.88
2023-01-29T04:40:49.864Z,15.65
2023-01-29T04:43:26.116Z,15.13
2023-01-29T04:46:05.394Z,16.45
2023-01-29T04:51:19.277Z,14.45
2023-01-29T04:54:03.436Z,15.38
2023-01-29T04:56:40.478Z,15.13
2023-01-29T04:59:18.029Z,15.73
2023-01-29T05:01:45.437Z,16.45
2023-01-29T05:04:15.974Z,17.20
2023-01-29T05:06:43.701Z,16.00
2023-01-29T05:09:11.004Z,16.83
2023-01-29T05:11:38.291Z,16.20
2023-01-29T05:14:08.008Z,16.90
2023-01-29T05:16:43.518Z,17.52
2023-01-29T05:19:12.987Z,16.15
2023-01-29T05:21:41.912Z,16.40
2023-01-29T05:24:13.238Z,17.88
2023-01-29T05:27:00.214Z,18.15
2023-01-29T05:29:27.490Z,17.98
2023-01-29T05:31:54.851Z,17.17
2023-01-29T05:34:22.141Z,18.42
2023-01-29T05:36:49.502Z,18.23
2023-01-29T05:39:16.911Z,18.10
2023-01-29T05:41:44.653Z,18.38
2023-01-29T05:44:11.955Z,18.70
2023-01-29T05:46:39.344Z,19.95
2023-01-29T05:49:06.920Z,18.08
2023-01-29T05:51:34.222Z,19.60
2023-01-29T05:54:01.424Z,18.55
2023-01-29T05:56:28.681Z,19.90
2023-01-29T05:58:56.525Z,19.00
2023-01-29T06:01:25.621Z,20.52
2023-01-29T06:03:53.021Z,19.83
2023-01-29T06:06:20.398Z,20.10
2023-01-29T06:08:47.736Z,20.63
2023-01-29T06:11:16.383Z,20.52
2023-01-29T06:13:44.254Z,19.30
2023-01-29T06:16:13.317Z,18.83
2023-01-29T06:18:41.283Z,20.35
2023-01-29T06:21:11.057Z,20.65
2023-01-29T06:23:38.508Z,19.42
2023-01-29T06:26:08.429Z,20.77
2023-01-29T06:28:35.861Z,20.85
2023-01-29T06:31:23.811Z,20.85
2023-01-29T06:33:51.327Z,20.25
2023-01-29T06:36:18.819Z,20.73
2023-01-29T06:38:47.270Z,21.15
2023-01-29T06:41:17.087Z,20.57
2023-01-29T06:43:48.056Z,20.40
2023-01-29T06:46:15.393Z,20.02
2023-01-29T06:48:42.778Z,20.40
2023-01-29T06:51:11.429Z,21.25
2023-01-29T06:53:39.331Z,19.83
2023-01-29T06:56:07.475Z,20.50
2023-01-29T06:58:37.597Z,21.40
2023-01-29T07:01:09.177Z,21.00
2023-01-29T07:03:36.909Z,20.33
2023-01-29T07:06:04.706Z,21.48
2023-01-29T07:08:32.287Z,21.33
2023-01-29T07:11:01.361Z,20.88
2023-01-29T07:13:28.789Z,21.35
2023-01-29T07:16:00.391Z,20.92
2023-01-29T07:18:28.812Z,20.48
2023-01-29T07:20:56.310Z,21.23
2023-01-29T07:23:23.769Z,21.42
2023-01-29T07:25:51.549Z,21.55
2023-01-29T07:28:19.301Z,20.92
2023-01-29T07:30:46.584Z,20.33
2023-01-29T07:33:13.857Z,19.17
2023-01-29T07:35:42.907Z,20.33
2023-01-29T07:38:12.785Z,20.85
2023-01-29T07:40:40.169Z,19.92
2023-01-29T07:43:09.559Z,21.10
2023-01-29T07:48:05.571Z,19.67
2023-01-29T07:50:34.134Z,20.00
2023-01-29T07:53:01.915Z,19.37
2023-01-29T07:55:29.327Z,20.52
2023-01-29T07:57:57.624Z,20.00
2023-01-29T08:00:24.956Z,20.48
2023-01-29T08:02:52.339Z,20.58
2023-01-29T08:05:19.591Z,19.88
2023-01-29T08:08:05.630Z,21.27
2023-01-29T08:10:34.480Z,20.92
2023-01-29T08:13:02.890Z,20.38
2023-01-29T08:15:30.612Z,19.30
2023-01-29T08:17:58.563Z,20.63
2023-01-29T08:20:26.530Z,19.58
2023-01-29T08:23:05.116Z,19.23
2023-01-29T08:25:32.840Z,21.35
2023-01-29T08:28:00.913Z,19.42
2023-01-29T08:30:29.949Z,20.67
2023-01-29T08:32:57.187Z,19.08
2023-01-29T08:35:24.791Z,20.40
2023-01-29T08:38:00.506Z,19.77
2023-01-29T08:40:34.104Z,20.52
2023-01-29T08:43:03.515Z,22.13
2023-01-29T08:45:35.077Z,20.05
2023-01-29T08:48:02.574Z,18.88
2023-01-29T08:50:34.461Z,19.85
2023-01-29T08:53:02.991Z,19.90
2023-01-29T08:55:30.502Z,19.80
2023-01-29T08:57:57.732Z,20.02
2023-01-29T09:00:25.136Z,19.17
2023-01-29T09:02:52.555Z,19.80
2023-01-29T09:05:20.223Z,18.27
2023-01-29T09:07:47.926Z,19.38
2023-01-29T09:10:15.477Z,19.05
2023-01-29T09:12:42.689Z,18.48
2023-01-29T09:15:10.491Z,18.25
2023-01-29T09:17:38.015Z,17.58
2023-01-29T09:20:08.631Z,18.83
2023-01-29T09:22:36.051Z,17.35
2023-01-29T09:25:04.855Z,19.10
2023-01-29T09:27:32.164Z,17.77
2023-01-29T09:30:00.935Z,18.08
2023-01-29T09:32:52.660Z,17.13
2023-01-29T09:35:18.169Z,17.38
2023-01-29T09:37:48.746Z,18.42
2023-01-29T09:40:37.183Z,16.75
2023-01-29T09:43:14.567Z,17.43
2023-01-29T09:46:31.661Z,17.50
2023-01-29T09:49:26.171Z,16.40
2023-01-29T09:52:03.584Z,14.32
2023-01-29T09:54:47.300Z,14.70
2023-01-29T09:57:35.212Z,16.05
2023-01-29T10:00:02.506Z,16.23
2023-01-29T10:02:54.269Z,15.35
2023-01-29T10:05:38.219Z,17.10
2023-01-29T10:08:26.161Z,16.00
2023-01-29T10:11:16.966Z,14.63
2023-01-29T10:14:03.268Z,13.98
2023-01-29T10:16:59.871Z,13.93
2023-01-29T10:19:47.951Z,14.10
2023-01-29T10:22:36.312Z,12.63
2023-01-29T10:25:10.695Z,13.30
2023-01-29T10:27:40.865Z,12.43
2023-01-29T10:30:20.002Z,13.52
2023-01-29T10:32:47.669Z,13.18
2023-01-29T10:35:25.265Z,12.02
2023-01-29T10:37:55.623Z,13.18
2023-01-29T10:40:29.513Z,12.50
2023-01-29T10:43:16.172Z,13.57
2023-01-29T10:45:48.836Z,12.05
2023-01-29T10:48:34.127Z,12.07
2023-01-29T10:51:16.569Z,14.00
2023-01-29T10:54:16.959Z,12.63
2023-01-29T10:56:53.105Z,12.38
2023-01-29T10:59:46.791Z,13.23
2023-01-29T11:02:18.057Z,12.55
2023-01-29T11:04:45.749Z,12.52
2023-01-29T11:07:13.544Z,12.85
2023-01-29T11:09:53.328Z,13.32
2023-01-29T11:12:26.794Z,12.38
2023-01-29T11:15:05.809Z,13.43
2023-01-29T11:17:33.155Z,12.40
2023-01-29T11:20:00.513Z,12.90
2023-01-29T11:22:29.712Z,11.90
2023-01-29T11:25:17.111Z,12.73
2023-01-29T11:27:56.626Z,12.20
2023-01-29T11:30:36.610Z,13.00
2023-01-29T11:33:19.764Z,13.38
2023-01-29T11:35:47.032Z,12.23
2023-01-29T11:38:27.146Z,12.38
2023-01-29T11:41:11.261Z,12.20
2023-01-29T11:43:38.525Z,12.48
2023-01-29T11:46:11.967Z,12.30
2023-01-29T11:48:46.326Z,12.68
2023-01-29T11:51:26.344Z,13.65
2023-01-29T11:53:58.384Z,13.18
2023-01-29T11:56:48.801Z,13.52
2023-01-29T11:59:48.888Z,12.45
2023-01-29T12:02:28.450Z,13.18
2023-01-29T12:04:58.433Z,13.20
2023-01-29T12:07:25.880Z,12.48
2023-01-29T12:09:58.819Z,12.57
2023-01-29T12:12:35.767Z,12.55
2023-01-29T12:15:16.588Z,12.68
2023-01-29T12:17:48.707Z,12.48
2023-01-29T12:20:20.809Z,12.43
2023-01-29T12:23:03.787Z,13.18
2023-01-29T12:25:56.557Z,12.40
2023-01-29T12:28:42.404Z,11.82
2023-01-29T12:31:22.966Z,12.52
2023-01-29T12:34:02.764Z,12.88
2023-01-29T12:36:42.051Z,12.27
2023-01-29T12:39:18.445Z,12.45
2023-01-29T12:42:10.131Z,12.30
2023-01-29T12:44:45.810Z,11.38
2023-01-29T12:47:24.534Z,12.27
2023-01-29T12:49:55.351Z,12.38
2023-01-29T12:52:29.211Z,12.30
2023-01-29T12:55:00.791Z,12.48
2023-01-29T12:57:40.574Z,12.80
2023-01-29T13:00:19.615Z,11.20
2023-01-29T13:02:55.949Z,12.27
2023-01-29T13:05:24.515Z,12.00
2023-01-29T13:07:59.807Z,13.03
2023-01-29T13:10:34.121Z,11.93
2023-01-29T13:13:24.282Z,12.13
2023-01-29T13:15:53.144Z,12.82
2023-01-29T13:18:58.352Z,11.88
2023-01-29T13:21:41.098Z,12.55
2023-01-29T13:24:14.367Z,12.18
2023-01-29T13:26:46.731Z,14.07
2023-01-29T13:29:25.388Z,13.52
2023-01-29T13:32:03.989Z,13.10
2023-01-29T13:34:34.433Z,12.88
2023-01-29T13:37:04.327Z,12.55
2023-01-29T13:39:34.752Z,13.43
2023-01-29T13:42:04.271Z,14.27
2023-01-29T13:44:37.396Z,13.80
2023-01-29T13:47:09.580Z,14.63
2023-01-29T13:49:45.783Z,14.18
2023-01-29T13:52:33.596Z,14.63
2023-01-29T13:55:19.482Z,14.35
2023-01-29T13:57:54.686Z,15.45
2023-01-29T14:00:30.779Z,16.40
2023-01-29T14:03:01.156Z,16.33
2023-01-29T14:05:31.691Z,16.13
2023-01-29T14:08:03.891Z,15.85
2023-01-29T14:10:33.424Z,16.58
2023-01-29T14:15:59.534Z,16.70
2023-01-29T14:18:28.720Z,17.05
2023-01-29T14:21:07.145Z,17.17
2023-01-29T14:23:47.108Z,16.30
2023-01-29T14:26:37.827Z,17.15
2023-01-29T14:29:29.086Z,17.52
2023-01-29T14:32:12.175Z,17.65
2023-01-29T14:34:45.934Z,17.58
2023-01-29T14:37:16.316Z,16.98
2023-01-29T14:39:50.148Z,16.95
2023-01-29T14:42:24.191Z,16.85
2023-01-29T14:45:18.444Z,17.40
2023-01-29T14:48:00.695Z,17.02
2023-01-29T14:50:34.783Z,16.20
2023-01-29T14:53:29.474Z,16.48
2023-01-29T14:56:11.895Z,16.70
2023-01-29T14:59:03.115Z,16.90
2023-01-29T15:01:38.691Z,17.25
2023-01-29T15:04:19.417Z,17.40
2023-01-29T15:06:49.325Z,17.15
2023-01-29T15:09:40.948Z,17.08
2023-01-29T15:12:28.470Z,15.95
2023-01-29T15:15:07.619Z,16.60
2023-01-29T15:17:57.690Z,15.95
2023-01-29T15:20:29.843Z,16.48
2023-01-29T15:22:57.623Z,17.13
2023-01-29T15:25:25.417Z,17.20
2023-01-29T15:27:54.121Z,17.83
2023-01-29T15:30:26.545Z,16.77
2023-01-29T15:32:53.867Z,16.52
2023-01-29T15:35:35.698Z,17.60
2023-01-29T15:38:21.493Z,17.25
2023-01-29T15:41:03.055Z,18.17
2023-01-29T15:43:35.125Z,18.17
2023-01-29T15:46:07.639Z,17.75
2023-01-29T15:48:43.047Z,18.38
2023-01-29T15:51:15.890Z,18.88
2023-01-29T15:53:52.199Z,18.95
2023-01-29T15:56:31.612Z,17.55
2023-01-29T15:59:04.005Z,18.35
2023-01-29T16:01:32.996Z,17.70
2023-01-29T16:04:02.770Z,18.38
2023-01-29T16:06:36.686Z,18.55
2023-01-29T16:09:05.476Z,18.63
2023-01-29T16:11:34.078Z,17.40
2023-01-29T16:14:02.265Z,18.23
2023-01-29T16:16:29.747Z,18.77
2023-01-29T16:19:00.734Z,17.83
2023-01-29T16:21:34.140Z,19.35
2023-01-29T16:24:18.068Z,18.35
2023-01-29T16:26:49.772Z,18.27
2023-01-29T16:29:22.440Z,18.27
2023-01-29T16:31:52.319Z,19.35
2023-01-29T16:34:26.124Z,19.92
2023-01-29T16:36:54.676Z,18.77
2023-01-29T16:39:27.843Z,18.40
2023-01-29T16:42:30.412Z,18.05
2023-01-29T16:45:06.434Z,20.08
2023-01-29T16:47:38.823Z,18.83
2023-01-29T16:50:18.355Z,18.00
2023-01-29T16:53:17.265Z,18.35
2023-01-29T16:55:47.085Z,19.30
2023-01-29T16:58:21.332Z,18.05
2023-01-29T17:01:03.944Z,17.10
2023-01-29T17:03:33.550Z,18.73
2023-01-29T17:06:13.231Z,17.73
2023-01-29T17:08:43.082Z,17.88
2023-01-29T17:11:25.814Z,17.33
2023-01-29T17:13:56.087Z,18.05
2023-01-29T17:16:31.336Z,17.80
2023-01-29T17:18:59.626Z,17.77
2023-01-29T17:21:28.412Z,17.75
2023-01-29T17:23:55.795Z,18.02
2023-01-29T17:26:24.893Z,17.00
2023-01-29T17:28:52.549Z,17.33
2023-01-29T17:31:20.006Z,17.02
2023-01-29T17:33:48.482Z,16.88
2023-01-29T17:36:17.349Z,15.98
2023-01-29T17:38:45.012Z,16.33
2023-01-29T17:41:15.415Z,15.95
2023-01-29T17:43:44.240Z,16.20
2023-01-29T17:46:16.207Z,16.92
2023-01-29T17:48:43.777Z,16.88
2023-01-29T17:51:18.373Z,15.77
2023-01-29T17:53:47.000Z,16.45
2023-01-29T17:56:17.034Z,15.68
2023-01-29T17:58:44.604Z,17.50
2023-01-29T18:01:11.873Z,16.15
2023-01-29T18:03:39.449Z,17.40
2023-01-29T18:06:19.306Z,15.13
2023-01-29T18:08:46.752Z,16.23
2023-01-29T18:11:14.378Z,14.95
2023-01-29T18:13:42.063Z,15.70
2023-01-29T18:16:09.654Z,14.73
2023-01-29T18:18:36.980Z,14.75
2023-01-29T18:21:04.543Z,14.50
2023-01-29T18:23:31.847Z,13.75
2023-01-29T18:25:59.206Z,14.93
2023-01-29T18:28:26.562Z,14.85
2023-01-29T18:30:54.208Z,14.82
2023-01-29T18:33:24.098Z,14.30
2023-01-29T18:35:51.529Z,15.25
2023-01-29T18:38:18.778Z,14.05
2023-01-29T18:40:46.099Z,13.90
2023-01-29T18:43:14.784Z,14.00
2023-01-29T18:45:42.547Z,15.18
2023-01-29T18:48:09.821Z,13.35
2023-01-29T18:50:37.183Z,14.85
2023-01-29T18:53:04.847Z,14.77
2023-01-29T18:55:32.260Z,13.88
2023-01-29T18:58:28.875Z,13.45
2023-01-29T19:00:48.710Z,12.98
2023-01-29T19:03:16.348Z,14.10
2023-01-29T19:05:44.059Z,13.82
2023-01-29T19:08:11.400Z,13.57
2023-01-29T19:10:38.874Z,12.35
2023-01-29T19:13:06.755Z,12.35
2023-01-29T19:15:34.862Z,12.43
2023-01-29T19:18:02.280Z,11.85
2023-01-29T19:20:29.832Z,11.05
2023-01-29T19:22:57.292Z,11.07
2023-01-29T19:25:25.107Z,13.25
2023-01-29T19:27:52.520Z,10.95
2023-01-29T19:30:20.052Z,13.38
2023-01-29T19:32:47.458Z,10.90
2023-01-29T19:35:14.879Z,10.60
2023-01-29T19:37:42.256Z,11.05
2023-01-29T19:40:10.335Z,14.82
2023-01-29T19:42:38.249Z,9.73
2023-01-29T19:45:06.277Z,10.25
2023-01-29T19:47:38.287Z,10.05
2023-01-29T19:50:06.360Z,9.88
2023-01-29T19:52:52.136Z,9.77
2023-01-29T19:55:21.111Z,10.40
2023-01-29T19:57:48.948Z,9.70
2023-01-29T20:00:17.686Z,9.82
2023-01-29T20:02:46.390Z,9.32
2023-01-29T20:05:17.402Z,9.75
2023-01-29T20:07:45.019Z,10.13
2023-01-29T20:10:17.626Z,9.82
2023-01-29T20:12:46.019Z,10.05
2023-01-29T20:15:14.539Z,10.02
2023-01-29T20:17:42.075Z,8.83
2023-01-29T20:20:10.219Z,9.02
2023-01-29T20:22:37.587Z,10.43
2023-01-29T20:25:05.071Z,9.77
2023-01-29T20:27:32.692Z,9.38
2023-01-29T20:30:00.132Z,11.40
2023-01-29T20:32:27.603Z,9.90
2023-01-29T20:34:55.133Z,9.20
2023-01-29T20:37:22.560Z,8.52
2023-01-29T20:39:49.947Z,9.40
2023-01-29T20:42:17.191Z,9.05
2023-01-29T20:44:44.783Z,9.35
2023-01-29T20:47:12.495Z,9.32
2023-01-29T20:49:40.047Z,9.27
2023-01-29T20:52:08.808Z,9.65
2023-01-29T20:54:36.218Z,9.82
2023-01-29T20:57:03.727Z,10.05
2023-01-29T20:59:31.540Z,9.93
2023-01-29T21:01:59.019Z,10.20
2023-01-29T21:04:27.182Z,10.57
2023-01-29T21:06:54.575Z,9.70
2023-01-29T21:09:22.098Z,10.02
2023-01-29T21:11:49.618Z,10.27
2023-01-29T21:14:16.996Z,9.65
2023-01-29T21:16:44.263Z,9.88
2023-01-29T21:19:14.616Z,9.70
2023-01-29T21:21:41.966Z,10.07
2023-01-29T21:24:09.786Z,10.80
2023-01-29T21:26:39.874Z,9.75
2023-01-29T21:29:07.529Z,9.90
2023-01-29T21:31:34.879Z,10.50
2023-01-29T21:34:03.367Z,9.43
2023-01-29T21:36:31.162Z,11.30
2023-01-29T21:38:58.719Z,10.32
2023-01-29T21:41:44.555Z,10.38
2023-01-29T21:44:12.573Z,10.35
2023-01-29T21:46:39.945Z,9.63
2023-01-29T21:49:07.293Z,10.50
2023-01-29T21:51:34.501Z,11.32
2023-01-29T21:54:03.468Z,11.25
2023-01-29T21:56:30.759Z,10.93
2023-01-29T21:59:00.780Z,10.48
2023-01-29T22:01:37.257Z,10.43
2023-01-29T22:04:08.228Z,11.00
2023-01-29T22:06:35.531Z,10.85
2023-01-29T22:09:02.711Z,11.02
2023-01-29T22:11:30.011Z,10.88
2023-01-29T22:13:57.219Z,10.77
2023-01-29T22:16:24.818Z,10.88
2023-01-29T22:18:52.070Z,10.68
2023-01-29T22:21:19.253Z,10.48
2023-01-29T22:23:49.497Z,10.00
2023-01-29T22:26:17.365Z,9.77
2023-01-29T22:28:44.978Z,10.05
2023-01-29T22:31:12.697Z,10.70
2023-01-29T22:33:40.135Z,9.88
2023-01-29T22:36:07.885Z,10.45
2023-01-29T22:38:35.132Z,10.20
2023-01-29T22:41:02.554Z,10.15
2023-01-29T22:43:29.782Z,10.50
2023-01-29T22:45:57.160Z,10.07
2023-01-29T22:48:24.551Z,9.88
2023-01-29T22:51:09.462Z,9.65
2023-01-29T22:53:38.329Z,10.68
2023-01-29T22:56:06.631Z,9.15
2023-01-29T22:58:33.919Z,9.77
2023-01-29T23:01:01.186Z,9.13
2023-01-29T23:03:28.494Z,10.07
2023-01-29T23:05:55.736Z,9.23
2023-01-29T23:08:22.918Z,10.23
2023-01-29T23:10:50.184Z,10.23
2023-01-29T23:13:17.408Z,9.63
2023-01-29T23:15:44.793Z,9.85
2023-01-29T23:18:12.231Z,10.55
2023-01-29T23:20:39.477Z,10.60
2023-01-29T23:23:06.724Z,11.02
2023-01-29T23:25:52.678Z,11.00
2023-01-29T23:28:19.882Z,11.68
2023-01-29T23:30:47.911Z,11.52
2023-01-29T23:33:15.532Z,11.00
2023-01-29T23:35:42.909Z,11.70
2023-01-29T23:38:10.305Z,11.73
2023-01-29T23:40:37.543Z,12.05
2023-01-29T23:43:04.741Z,11.70
2023-01-29T23:45:31.989Z,12.77
2023-01-29T23:47:59.203Z,11.68
2023-01-29T23:50:26.477Z,12.10
2023-01-29T23:52:53.669Z,12.38
2023-01-29T23:55:20.896Z,12.07
2023-01-29T23:57:48.470Z,11.90
